createdAt,value
2023-05-12T00:00:20.274Z,14.40
2023-05-12T00:02:47.429Z,14.50
2023-05-12T00:05:14.507Z,14.40
2023-05-12T00:07:41.416Z,14.40
2023-05-12T00:10:09.852Z,14.40
2023-05-12T00:12:38.686Z,14.30
2023-05-12T00:15:07.881Z,14.20
2023-05-12T00:17:34.857Z,14.30
2023-05-12T00:20:02.976Z,14.30
2023-05-12T00:22:30.485Z,14.20
2023-05-12T00:24:57.500Z,14.30
2023-05-12T00:27:24.940Z,14.30
2023-05-12T00:29:53.166Z,14.30
2023-05-12T00:32:20.710Z,14.30
2023-05-12T00:34:48.226Z,14.40
2023-05-12T00:37:15.117Z,14.30
2023-05-12T00:39:42.605Z,14.40
2023-05-12T00:42:11.783Z,14.40
2023-05-12T00:44:39.336Z,14.30
2023-05-12T00:47:08.867Z,14.30
2023-05-12T00:49:36.189Z,14.20
2023-05-12T00:52:04.782Z,14.10
2023-05-12T00:54:32.552Z,14.20
2023-05-12T00:56:59.529Z,14.20
2023-05-12T00:59:26.774Z,14.30
2023-05-12T01:01:54.608Z,14.20
2023-05-12T01:04:23.758Z,14.30
2023-05-12T01:06:58.320Z,14.30
2023-05-12T01:09:26.057Z,14.30
2023-05-12T01:11:53.542Z,14.30
2023-05-12T01:14:21.120Z,14.30
2023-05-12T01:16:52.532Z,14.10
2023-05-12T01:19:34.509Z,14.10
2023-05-12T01:22:01.673Z,14.20
2023-05-12T01:24:33.751Z,14.30
2023-05-12T01:27:03.653Z,14.20
2023-05-12T01:29:32.795Z,14.20
2023-05-12T01:31:59.942Z,14.10
2023-05-12T01:34:27.718Z,14.10
2023-05-12T01:36:55.262Z,14.10
2023-05-12T01:39:22.308Z,14.10
2023-05-12T01:41:49.298Z,14.20
2023-05-12T01:44:17.618Z,14.20
2023-05-12T01:46:44.615Z,14.30
2023-05-12T01:49:11.685Z,14.20
2023-05-12T01:51:39.071Z,14.20
2023-05-12T01:54:06.096Z,14.30
2023-05-12T01:56:33.563Z,14.20
2023-05-12T01:59:00.606Z,14.20
2023-05-12T02:01:29.560Z,14.20
2023-05-12T02:03:56.681Z,14.20
2023-05-12T02:06:23.819Z,14.20
2023-05-12T02:08:51.411Z,14.20
2023-05-12T02:11:18.930Z,14.30
2023-05-12T02:13:46.366Z,14.20
2023-05-12T02:16:13.820Z,14.10
2023-05-12T02:18:42.065Z,14.10
2023-05-12T02:21:09.515Z,14.20
2023-05-12T02:23:37.284Z,14.20
2023-05-12T02:26:04.461Z,14.20
2023-05-12T02:28:31.987Z,14.10
2023-05-12T02:30:59.260Z,14.20
2023-05-12T02:33:27.292Z,14.10
2023-05-12T02:35:55.727Z,14.10
2023-05-12T02:38:23.197Z,14.00
2023-05-12T02:40:50.290Z,14.00
2023-05-12T02:43:17.330Z,14.00
2023-05-12T02:45:44.890Z,14.10
2023-05-12T02:48:12.084Z,14.10
2023-05-12T02:50:39.068Z,14.10
2023-05-12T02:53:08.134Z,14.10
2023-05-12T02:55:35.205Z,14.00
2023-05-12T02:58:02.272Z,14.00
2023-05-12T03:00:29.317Z,14.10
2023-05-12T03:02:56.949Z,14.10
2023-05-12T03:05:24.557Z,14.00
2023-05-12T03:07:51.730Z,14.10
2023-05-12T03:10:20.801Z,14.10
2023-05-12T03:12:48.012Z,14.20
2023-05-12T03:15:15.189Z,14.20
2023-05-12T03:17:42.405Z,14.10
2023-05-12T03:20:10.769Z,14.10
2023-05-12T03:22:38.248Z,14.20
2023-05-12T03:25:07.961Z,14.20
2023-05-12T03:27:36.954Z,14.10
2023-05-12T03:30:07.687Z,14.10
2023-05-12T03:32:34.932Z,14.10
2023-05-12T03:35:02.575Z,14.10
2023-05-12T03:37:29.543Z,14.10
2023-05-12T03:39:57.563Z,14.10
2023-05-12T03:42:25.106Z,14.10
2023-05-12T03:44:54.017Z,14.20
2023-05-12T03:47:21.590Z,14.20
2023-05-12T03:49:48.665Z,14.20
2023-05-12T03:52:16.256Z,14.30
2023-05-12T03:54:43.331Z,14.30
2023-05-12T03:57:10.949Z,14.20
2023-05-12T03:59:38.406Z,14.20
2023-05-12T04:02:07.760Z,14.20
2023-05-12T04:04:35.245Z,14.10
2023-05-12T04:07:02.225Z,14.20
2023-05-12T04:09:32.500Z,14.10
2023-05-12T04:12:00.725Z,14.10
2023-05-12T04:14:39.167Z,14.10
2023-05-12T04:17:11.618Z,14.20
2023-05-12T04:19:38.608Z,14.20
2023-05-12T04:22:06.363Z,14.20
2023-05-12T04:24:33.310Z,14.20
2023-05-12T04:27:00.883Z,14.20
2023-05-12T04:29:27.866Z,14.20
2023-05-12T04:31:55.903Z,14.20
2023-05-12T04:34:24.452Z,14.20
2023-05-12T04:36:51.567Z,14.20
2023-05-12T04:39:18.576Z,14.20
2023-05-12T04:41:45.635Z,14.10
2023-05-12T04:44:13.206Z,14.10
2023-05-12T04:46:41.525Z,14.20
2023-05-12T04:49:09.055Z,14.10
2023-05-12T04:51:42.324Z,14.10
2023-05-12T04:54:10.845Z,14.10
2023-05-12T04:56:37.848Z,14.00
2023-05-12T04:59:05.333Z,14.00
2023-05-12T05:01:32.528Z,14.00
2023-05-12T05:03:59.608Z,13.90
2023-05-12T05:06:27.204Z,13.90
2023-05-12T05:08:55.963Z,13.90
2023-05-12T05:11:23.343Z,13.90
2023-05-12T05:13:50.339Z,14.00
2023-05-12T05:16:17.591Z,14.00
2023-05-12T05:18:47.651Z,14.10
2023-05-12T05:21:15.159Z,14.20
2023-05-12T05:23:42.567Z,14.20
2023-05-12T05:26:12.044Z,14.20
2023-05-12T05:28:40.144Z,14.20
2023-05-12T05:31:07.573Z,14.20
2023-05-12T05:33:35.247Z,14.20
2023-05-12T05:36:03.206Z,14.30
2023-05-12T05:38:30.308Z,14.30
2023-05-12T05:40:57.791Z,14.40
2023-05-12T05:43:26.100Z,14.40
2023-05-12T05:45:53.567Z,14.40
2023-05-12T05:48:20.785Z,14.50
2023-05-12T05:50:48.195Z,14.50
2023-05-12T05:53:15.634Z,14.50
2023-05-12T05:55:43.215Z,14.60
2023-05-12T05:58:10.934Z,14.60
2023-05-12T06:00:39.322Z,14.60
2023-05-12T06:03:06.997Z,14.60
2023-05-12T06:05:34.282Z,14.60
2023-05-12T06:08:01.835Z,14.50
2023-05-12T06:10:29.034Z,14.50
2023-05-12T06:12:56.267Z,14.50
2023-05-12T06:15:23.589Z,14.50
2023-05-12T06:17:52.481Z,14.50
2023-05-12T06:20:20.130Z,14.50
2023-05-12T06:22:47.218Z,14.50
2023-05-12T06:25:14.744Z,14.50
2023-05-12T06:27:41.699Z,14.40
2023-05-12T06:30:10.209Z,14.40
2023-05-12T06:32:37.699Z,14.40
2023-05-12T06:35:07.397Z,14.40
2023-05-12T06:37:34.803Z,14.40
2023-05-12T06:40:01.801Z,14.40
2023-05-12T06:42:29.230Z,14.40
2023-05-12T06:44:56.203Z,14.40
2023-05-12T06:47:23.577Z,14.40
2023-05-12T06:49:50.887Z,14.40
2023-05-12T06:52:20.912Z,14.40
2023-05-12T06:54:48.231Z,14.40
2023-05-12T06:57:15.218Z,14.30
2023-05-12T06:59:42.781Z,14.30
2023-05-12T07:02:09.682Z,14.30
2023-05-12T07:04:37.313Z,14.30
2023-05-12T07:07:04.697Z,14.30
2023-05-12T07:09:33.049Z,14.30
2023-05-12T07:12:00.705Z,14.30
2023-05-12T07:14:27.802Z,14.30
2023-05-12T07:16:54.724Z,14.30
2023-05-12T07:19:21.711Z,14.30
2023-05-12T07:21:49.338Z,14.40
2023-05-12T07:24:16.609Z,14.50
2023-05-12T07:26:44.942Z,14.40
2023-05-12T07:29:13.780Z,14.50
2023-05-12T07:31:41.288Z,14.50
2023-05-12T07:34:08.352Z,14.50
2023-05-12T07:36:35.614Z,14.60
2023-05-12T07:39:02.807Z,14.70
2023-05-12T07:41:30.217Z,14.70
2023-05-12T07:43:59.289Z,14.70
2023-05-12T07:46:26.459Z,14.70
2023-05-12T07:48:53.542Z,14.70
2023-05-12T07:51:20.519Z,14.80
2023-05-12T07:53:47.550Z,14.80
2023-05-12T07:56:15.366Z,14.80
2023-05-12T07:58:42.448Z,14.80
2023-05-12T08:01:10.866Z,14.70
2023-05-12T08:03:37.982Z,14.80
2023-05-12T08:06:07.493Z,14.80
2023-05-12T08:08:34.992Z,14.80
2023-05-12T08:11:01.970Z,14.80
2023-05-12T08:13:29.374Z,14.80
2023-05-12T08:15:56.288Z,14.80
2023-05-12T08:18:24.989Z,14.90
2023-05-12T08:20:52.070Z,14.90
2023-05-12T08:23:19.624Z,14.90
2023-05-12T08:25:48.394Z,14.90
2023-05-12T08:28:15.735Z,14.90
2023-05-12T08:30:43.066Z,14.90
2023-05-12T08:33:10.415Z,14.90
2023-05-12T08:35:39.170Z,14.90
2023-05-12T08:38:06.662Z,14.90
2023-05-12T08:40:41.631Z,14.90
2023-05-12T08:43:15.833Z,15.00
2023-05-12T08:45:44.291Z,15.00
2023-05-12T08:48:13.519Z,15.00
2023-05-12T08:50:42.863Z,15.00
2023-05-12T08:53:12.279Z,15.10
2023-05-12T08:55:46.091Z,15.10
2023-05-12T08:58:21.490Z,15.20
2023-05-12T09:00:53.080Z,15.30
2023-05-12T09:03:21.745Z,15.40
2023-05-12T09:05:50.457Z,15.50
2023-05-12T09:08:17.517Z,15.60
2023-05-12T09:10:45.421Z,15.60
2023-05-12T09:16:04.710Z,15.70
2023-05-12T09:18:48.113Z,15.60
2023-05-12T09:21:16.505Z,15.70
2023-05-12T09:23:56.782Z,15.70
2023-05-12T09:26:25.310Z,15.70
2023-05-12T09:28:54.513Z,15.80
2023-05-12T09:31:23.819Z,15.80
2023-05-12T09:33:52.155Z,15.90
2023-05-12T09:36:22.317Z,15.90
2023-05-12T09:38:59.550Z,15.90
2023-05-12T09:41:26.945Z,15.90
2023-05-12T09:43:54.003Z,16.00
2023-05-12T09:46:21.026Z,16.10
2023-05-12T09:48:48.693Z,16.10
2023-05-12T09:51:20.472Z,16.20
2023-05-12T09:53:48.779Z,16.20
2023-05-12T09:56:17.486Z,16.20
2023-05-12T09:58:46.439Z,16.30
2023-05-12T10:01:22.572Z,16.30
2023-05-12T10:03:54.961Z,16.40
2023-05-12T10:06:26.307Z,16.40
2023-05-12T10:09:04.337Z,16.50
2023-05-12T10:11:32.343Z,16.50
2023-05-12T10:14:00.772Z,16.60
2023-05-12T10:16:29.195Z,16.60
2023-05-12T10:18:56.669Z,16.60
2023-05-12T10:21:26.028Z,16.60
2023-05-12T10:23:55.432Z,16.60
2023-05-12T10:26:23.765Z,16.60
2023-05-12T10:28:52.089Z,16.60
2023-05-12T10:31:20.201Z,16.60
2023-05-12T10:33:57.767Z,16.60
2023-05-12T10:36:25.557Z,16.50
2023-05-12T10:38:54.770Z,16.50
2023-05-12T10:41:35.453Z,16.50
2023-05-12T10:44:02.780Z,16.50
2023-05-12T10:46:30.939Z,16.50
2023-05-12T10:49:01.074Z,16.40
2023-05-12T10:51:30.241Z,16.30
2023-05-12T10:54:00.971Z,16.30
2023-05-12T10:56:30.836Z,16.30
2023-05-12T10:59:19.473Z,16.20
2023-05-12T11:02:06.609Z,16.20
2023-05-12T11:04:41.549Z,16.10
2023-05-12T11:07:10.190Z,16.10
2023-05-12T11:09:53.094Z,16.10
2023-05-12T11:12:24.817Z,16.10
2023-05-12T11:14:51.776Z,16.10
2023-05-12T11:17:18.877Z,16.00
2023-05-12T11:19:48.397Z,16.00
2023-05-12T11:22:21.672Z,15.90
2023-05-12T11:24:51.210Z,15.90
2023-05-12T11:27:23.694Z,15.90
2023-05-12T11:29:58.922Z,15.90
2023-05-12T11:32:26.217Z,15.90
2023-05-12T11:34:53.267Z,15.90
2023-05-12T11:37:21.756Z,15.90
2023-05-12T11:39:50.551Z,15.90
2023-05-12T11:42:20.263Z,15.90
2023-05-12T11:44:50.497Z,15.90
2023-05-12T11:47:19.568Z,15.90
2023-05-12T11:49:49.095Z,15.90
2023-05-12T11:52:17.057Z,15.90
2023-05-12T11:54:51.456Z,15.80
2023-05-12T11:57:28.592Z,15.80
2023-05-12T12:02:46.603Z,15.70
2023-05-12T12:05:18.710Z,15.70
2023-05-12T12:07:45.911Z,15.70
2023-05-12T12:10:16.862Z,15.60
2023-05-12T12:12:45.141Z,15.60
2023-05-12T12:15:13.179Z,15.70
2023-05-12T12:17:40.811Z,15.80
2023-05-12T12:20:09.781Z,15.80
2023-05-12T12:22:36.924Z,15.90
2023-05-12T12:25:05.166Z,16.10
2023-05-12T12:27:33.955Z,16.10
2023-05-12T12:30:00.877Z,16.30
2023-05-12T12:32:28.042Z,16.30
2023-05-12T12:34:59.921Z,16.30
2023-05-12T12:37:27.023Z,16.30
2023-05-12T12:39:55.481Z,16.30
2023-05-12T12:42:22.457Z,16.40
2023-05-12T12:44:51.882Z,16.50
2023-05-12T12:47:19.354Z,16.50
2023-05-12T12:49:46.743Z,16.60
2023-05-12T12:52:13.824Z,16.60
2023-05-12T12:54:42.291Z,16.60
2023-05-12T12:57:09.229Z,16.50
2023-05-12T12:59:36.695Z,16.60
2023-05-12T13:02:05.235Z,16.60
2023-05-12T13:04:32.716Z,16.60
2023-05-12T13:07:00.169Z,16.50
2023-05-12T13:09:28.311Z,16.50
2023-05-12T13:11:55.299Z,16.50
2023-05-12T13:14:23.386Z,16.50
2023-05-12T13:16:50.951Z,16.60
2023-05-12T13:19:19.795Z,16.50
2023-05-12T13:21:47.245Z,16.50
2023-05-12T13:24:14.623Z,16.50
2023-05-12T13:26:41.556Z,16.50
2023-05-12T13:29:08.845Z,16.50
2023-05-12T13:31:35.985Z,16.50
2023-05-12T13:34:03.023Z,16.50
2023-05-12T13:36:34.009Z,16.50
2023-05-12T13:39:03.106Z,16.50
2023-05-12T13:41:30.296Z,16.60
2023-05-12T13:43:57.635Z,16.60
2023-05-12T13:46:24.668Z,16.70
2023-05-12T13:48:52.404Z,16.70
2023-05-12T13:51:20.014Z,16.70
2023-05-12T13:53:48.647Z,16.70
2023-05-12T13:56:16.483Z,16.70
2023-05-12T13:58:43.545Z,16.70
2023-05-12T14:01:11.723Z,16.80
2023-05-12T14:03:38.850Z,16.70
2023-05-12T14:06:06.670Z,16.80
2023-05-12T14:08:34.285Z,16.80
2023-05-12T14:11:02.606Z,16.80
2023-05-12T14:13:29.978Z,16.80
2023-05-12T14:15:57.719Z,16.90
2023-05-12T14:18:27.235Z,16.80
2023-05-12T14:20:54.786Z,16.80
2023-05-12T14:23:21.711Z,16.80
2023-05-12T14:25:49.200Z,16.80
2023-05-12T14:28:17.938Z,16.80
2023-05-12T14:30:45.212Z,16.90
2023-05-12T14:33:12.435Z,16.90
2023-05-12T14:35:39.821Z,16.90
2023-05-12T14:38:07.321Z,16.90
2023-05-12T14:40:34.280Z,16.90
2023-05-12T14:43:01.643Z,17.00
2023-05-12T14:45:31.911Z,17.00
2023-05-12T14:47:59.740Z,17.10
2023-05-12T14:50:28.686Z,17.20
2023-05-12T14:52:56.041Z,17.20
2023-05-12T14:55:23.488Z,17.30
2023-05-12T14:57:51.756Z,17.40
2023-05-12T15:00:21.149Z,17.40
2023-05-12T15:02:49.693Z,17.40
2023-05-12T15:05:16.724Z,17.50
2023-05-12T15:07:43.984Z,17.50
2023-05-12T15:10:11.598Z,17.50
2023-05-12T15:12:39.001Z,17.60
2023-05-12T15:15:09.184Z,17.50
2023-05-12T15:17:36.254Z,17.50
2023-05-12T15:20:07.257Z,17.60
2023-05-12T15:22:34.848Z,17.60
2023-05-12T15:25:04.306Z,17.60
2023-05-12T15:27:32.605Z,17.60
2023-05-12T15:29:59.631Z,17.60
2023-05-12T15:32:26.884Z,17.60
2023-05-12T15:34:58.360Z,17.60
2023-05-12T15:37:26.842Z,17.60
2023-05-12T15:39:54.324Z,17.60
2023-05-12T15:42:26.248Z,17.50
2023-05-12T15:44:59.496Z,17.50
2023-05-12T15:47:27.449Z,17.50
2023-05-12T15:49:54.561Z,17.50
2023-05-12T15:52:21.630Z,17.60
2023-05-12T15:54:50.052Z,17.70
2023-05-12T15:57:17.024Z,17.70
2023-05-12T15:59:44.114Z,17.70
2023-05-12T16:02:11.194Z,17.70
2023-05-12T16:04:38.625Z,17.80
2023-05-12T16:07:05.739Z,17.70
2023-05-12T16:09:32.726Z,17.80
2023-05-12T16:12:01.241Z,17.80
2023-05-12T16:14:28.205Z,17.80
2023-05-12T16:16:55.284Z,17.70
2023-05-12T16:19:23.736Z,17.80
2023-05-12T16:21:50.831Z,17.80
2023-05-12T16:24:17.891Z,17.80
2023-05-12T16:26:44.877Z,17.80
2023-05-12T16:29:13.760Z,17.70
2023-05-12T16:31:40.884Z,17.70
2023-05-12T16:34:08.340Z,17.70
2023-05-12T16:36:35.588Z,17.70
2023-05-12T16:39:02.950Z,17.70
2023-05-12T16:41:30.072Z,17.70
2023-05-12T16:43:57.719Z,17.70
2023-05-12T16:46:26.355Z,17.70
2023-05-12T16:48:53.438Z,17.60
2023-05-12T16:51:20.795Z,17.60
2023-05-12T16:53:47.836Z,17.60
2023-05-12T16:56:15.219Z,17.60
2023-05-12T16:58:42.451Z,17.60
2023-05-12T17:01:09.562Z,17.60
2023-05-12T17:03:39.453Z,17.60
2023-05-12T17:06:06.825Z,17.70
2023-05-12T17:08:36.770Z,17.70
2023-05-12T17:11:05.565Z,17.60
2023-05-12T17:13:36.712Z,17.70
2023-05-12T17:16:04.901Z,17.70
2023-05-12T17:18:32.189Z,17.70
2023-05-12T17:21:01.015Z,17.60
2023-05-12T17:23:28.202Z,17.60
2023-05-12T17:25:55.337Z,17.50
2023-05-12T17:28:22.847Z,17.50
2023-05-12T17:30:50.544Z,17.50
2023-05-12T17:33:18.026Z,17.40
2023-05-12T17:35:53.556Z,17.40
2023-05-12T17:38:32.827Z,17.40
2023-05-12T17:40:59.838Z,17.40
2023-05-12T17:43:26.947Z,17.40
2023-05-12T17:45:53.854Z,17.30
2023-05-12T17:48:21.018Z,17.30
2023-05-12T17:50:48.904Z,17.30
2023-05-12T17:53:16.415Z,17.20
2023-05-12T17:55:44.762Z,17.30
2023-05-12T17:58:11.915Z,17.30
2023-05-12T18:00:39.492Z,17.40
2023-05-12T18:03:07.730Z,17.40
2023-05-12T18:05:36.010Z,17.40
2023-05-12T18:08:03.965Z,17.40
2023-05-12T18:10:31.087Z,17.30
2023-05-12T18:12:59.550Z,17.30
2023-05-12T18:15:28.684Z,17.30
2023-05-12T18:17:57.756Z,17.30
2023-05-12T18:20:25.676Z,17.30
2023-05-12T18:22:53.049Z,17.20
2023-05-12T18:25:20.689Z,17.20
2023-05-12T18:27:48.802Z,17.20
2023-05-12T18:30:17.712Z,17.10
2023-05-12T18:32:45.251Z,17.10
2023-05-12T18:35:12.495Z,17.10
2023-05-12T18:37:39.508Z,17.10
2023-05-12T18:40:08.461Z,17.00
2023-05-12T18:42:35.932Z,17.00
2023-05-12T18:45:03.287Z,17.10
2023-05-12T18:47:32.325Z,17.00
2023-05-12T18:49:59.899Z,16.90
2023-05-12T18:52:27.039Z,16.90
2023-05-12T18:54:54.032Z,16.70
2023-05-12T18:57:21.566Z,16.80
2023-05-12T18:59:49.062Z,16.70
2023-05-12T19:02:17.387Z,16.60
2023-05-12T19:04:45.752Z,16.70
2023-05-12T19:07:15.400Z,16.70
2023-05-12T19:09:43.817Z,16.70
2023-05-12T19:14:56.846Z,16.60
2023-05-12T19:17:24.036Z,16.50
2023-05-12T19:19:52.448Z,16.50
2023-05-12T19:22:20.069Z,16.30
2023-05-12T19:24:47.269Z,16.10
2023-05-12T19:27:14.946Z,16.00
2023-05-12T19:29:42.466Z,16.00
2023-05-12T19:32:10.028Z,16.00
2023-05-12T19:34:37.290Z,16.00
2023-05-12T19:37:06.084Z,15.90
2023-05-12T19:39:33.084Z,15.90
2023-05-12T19:42:00.152Z,16.00
2023-05-12T19:47:12.587Z,16.00
2023-05-12T19:49:40.253Z,16.00
2023-05-12T19:52:08.969Z,15.90
2023-05-12T19:54:36.682Z,15.80
2023-05-12T19:57:04.484Z,15.80
2023-05-12T19:59:31.532Z,15.70
2023-05-12T20:01:58.742Z,15.70
2023-05-12T20:04:27.592Z,15.70
2023-05-12T20:06:54.585Z,15.60
2023-05-12T20:09:24.683Z,15.70
2023-05-12T20:11:52.160Z,15.80
2023-05-12T20:14:19.153Z,15.70
2023-05-12T20:16:46.780Z,15.70
2023-05-12T20:19:13.935Z,15.70
2023-05-12T20:21:41.618Z,15.60
2023-05-12T20:24:09.301Z,15.60
2023-05-12T20:26:37.921Z,15.60
2023-05-12T20:29:04.969Z,15.60
2023-05-12T20:31:32.236Z,15.50
2023-05-12T20:33:59.281Z,15.50
2023-05-12T20:39:11.395Z,15.20
2023-05-12T20:41:42.401Z,15.20
2023-05-12T20:44:09.693Z,15.30
2023-05-12T20:46:38.675Z,15.30
2023-05-12T20:49:06.235Z,15.30
2023-05-12T20:51:33.520Z,15.30
2023-05-12T20:54:00.684Z,15.40
2023-05-12T20:56:27.746Z,15.40
2023-05-12T20:58:57.512Z,15.50
2023-05-12T21:01:24.545Z,15.40
2023-05-12T21:03:52.216Z,15.50
2023-05-12T21:06:20.360Z,15.40
2023-05-12T21:08:47.368Z,15.20
2023-05-12T21:11:16.061Z,15.10
2023-05-12T21:16:29.245Z,15.10
2023-05-12T21:18:56.518Z,15.00
2023-05-12T21:21:23.510Z,15.00
2023-05-12T21:23:50.963Z,15.00
2023-05-12T21:26:17.928Z,15.00
2023-05-12T21:28:44.887Z,15.00
2023-05-12T21:31:12.289Z,14.90
2023-05-12T21:33:40.637Z,14.80
2023-05-12T21:36:08.840Z,14.80
2023-05-12T21:38:35.807Z,14.80
2023-05-12T21:41:02.859Z,14.70
2023-05-12T21:43:29.890Z,14.60
2023-05-12T21:46:01.678Z,14.60
2023-05-12T21:48:28.645Z,14.60
2023-05-12T21:51:01.644Z,14.60
2023-05-12T21:53:29.362Z,14.40
2023-05-12T21:55:56.432Z,14.40
2023-05-12T21:58:24.144Z,14.30
2023-05-12T22:00:51.774Z,14.30
2023-05-12T22:03:20.416Z,14.30
2023-05-12T22:05:48.217Z,14.30
2023-05-12T22:08:17.192Z,14.30
2023-05-12T22:10:44.570Z,14.30
2023-05-12T22:13:11.565Z,14.30
2023-05-12T22:15:38.651Z,14.20
2023-05-12T22:18:06.208Z,14.20
2023-05-12T22:20:33.266Z,14.20
2023-05-12T22:23:00.223Z,14.10
2023-05-12T22:25:29.052Z,14.10
2023-05-12T22:27:56.105Z,14.00
2023-05-12T22:30:24.079Z,14.00
2023-05-12T22:32:51.783Z,14.00
2023-05-12T22:35:19.313Z,14.00
2023-05-12T22:37:46.772Z,14.00
2023-05-12T22:40:13.894Z,14.00
2023-05-12T22:42:42.192Z,13.90
2023-05-12T22:45:09.879Z,13.90
2023-05-12T22:47:36.946Z,13.80
2023-05-12T22:50:04.332Z,13.60
2023-05-12T22:52:31.327Z,13.60
2023-05-12T22:54:58.681Z,13.60
2023-05-12T22:57:25.818Z,13.70
2023-05-12T22:59:54.625Z,13.60
2023-05-12T23:02:21.587Z,13.60
2023-05-12T23:04:49.030Z,13.60
2023-05-12T23:07:16.393Z,13.50
2023-05-12T23:09:43.390Z,13.60
2023-05-12T23:12:10.883Z,13.50
2023-05-12T23:14:37.838Z,13.50
2023-05-12T23:17:07.110Z,13.50
2023-05-12T23:19:34.626Z,13.60
2023-05-12T23:22:01.535Z,13.60
2023-05-12T23:24:28.549Z,13.60
2023-05-12T23:26:55.487Z,13.50
2023-05-12T23:29:23.150Z,13.40
2023-05-12T23:31:50.335Z,13.50
2023-05-12T23:34:19.157Z,13.50
2023-05-12T23:36:46.101Z,13.20
2023-05-12T23:39:13.965Z,13.20
2023-05-12T23:41:41.158Z,13.20
2023-05-12T23:44:08.613Z,13.20
2023-05-12T23:46:35.670Z,13.20
2023-05-12T23:49:03.555Z,13.30
2023-05-12T23:51:32.841Z,13.30
2023-05-12T23:56:44.477Z,13.30
2023-05-12T23:59:11.949Z,13.40
